CST,Max TemperatureF,Mean TemperatureF,Min TemperatureF,Max Dew PointF,MeanDew PointF,Min DewpointF,Max Humidity, Mean Humidity, Min Humidity, Max Sea Level PressureIn, Mean Sea Level PressureIn, Min Sea Level PressureIn, Max VisibilityMiles, Mean VisibilityMiles, Min VisibilityMiles, Max Wind SpeedMPH, Mean Wind SpeedMPH, Max Gust SpeedMPH,PrecipitationIn, CloudCover, Events, WindDirDegrees
2012-12-1,42,37,32,34,30,28,89,76,62,29.92,29.80,29.69,5,4,2,26,11,37,T,4,Rain,314
2012-12-2,50,40,30,38,32,28,92,77,61,29.94,29.77,29.43,10,4,0,28,14,36,0.00,4,Fog,150
2012-12-3,50,36,22,41,31,13,89,71,53,30.00,29.63,29.37,10,10,8,25,16,31,0.06,1,Rain,258
2012-12-4,24,19,14,13,10,7,80,68,55,30.43,30.29,30.02,10,10,10,20,10,24,0.00,1,,335
2012-12-5,40,28,15,26,17,10,80,64,47,30.39,30.00,29.69,10,10,9,30,17,40,T,2,Snow,153
2012-12-6,39,28,17,28,19,14,84,69,54,30.05,29.92,29.71,10,10,10,25,11,32,0.00,3,,285
2012-12-7,21,17,12,13,11,9,88,75,62,30.14,30.10,30.06,10,10,9,13,8,15,0.00,6,,16
2012-12-8,32,26,20,26,20,10,92,80,67,30.09,30.00,29.94,10,6,1,22,10,24,0.05,8,Snow,91
2012-12-9,21,8,-6,16,1,-13,84,72,59,30.34,30.20,30.03,10,6,1,33,22,40,0.02,5,Snow,358
2012-12-10,11,1,-9,3,-4,-15,80,73,65,30.22,29.93,29.75,10,9,3,13,8,16,0.01,3,Snow,172
2012-12-11,13,7,1,4,1,-3,87,77,66,29.99,29.90,29.81,10,9,2,9,7,13,T,4,Snow,329
2012-12-12,29,19,9,18,11,3,77,70,63,30.02,29.86,29.75,10,10,8,23,11,28,0.00,6,,110
2012-12-13,16,12,8,11,7,3,73,53,32,30.19,30.10,29.97,10,9,2,20,8,22,T,7,Snow,8
2012-12-14,31,21,10,23,15,7,92,62,32,30.11,29.94,29.75,9,6,1,20,10,24,0.00,2,,152
2012-12-15,29,21,13,22,17,9,84,79,73,29.80,29.72,29.66,10,6,3,23,10,28,T,3,,346
2012-12-16,24,21,17,19,17,13,84,79,74,29.89,29.86,29.76,10,10,6,26,12,31,T,8,Snow,351
2012-12-17,24,20,16,18,15,12,88,81,74,29.86,29.76,29.66,10,7,2,10,4,14,T,8,Snow,120
2012-12-18,29,27,24,26,23,18,92,83,74,29.74,29.67,29.62,10,4,1,12,6,15,0.05,8,Snow,159
2012-12-19,28,22,15,24,15,10,85,76,67,30.12,29.95,29.72,10,10,4,17,10,20,T,5,,259
2012-12-20,19,8,-4,12,4,-9,87,77,66,30.30,30.19,30.07,10,10,4,20,10,23,T,5,Snow,327
2012-12-21,11,5,-2,4,3,-2,80,73,66,30.36,30.27,30.14,10,7,1,17,7,22,T,5,Snow,164
2012-12-22,15,9,2,9,4,-3,86,80,73,30.27,30.17,30.05,10,7,2,25,12,30,T,3,Snow,353
2012-12-23,6,4,2,0,-2,-6,86,79,72,30.29,30.21,30.13,10,5,1,17,13,22,0.09,6,Snow,9
2012-12-24,3,-4,-12,-4,-10,-18,79,72,65,30.50,30.31,30.15,10,8,2,21,10,23,0.02,4,Snow,348
2012-12-25,2,-5,-13,-5,-13,-19,78,72,65,30.62,30.57,30.50,10,10,5,8,4,9,T,2,Snow,236
2012-12-26,12,4,-5,3,-1,-7,87,74,61,30.47,30.37,30.32,10,6,2,8,3,9,0.05,7,Snow,131
2012-12-27,17,7,-4,11,6,-3,88,78,67,30.32,30.22,30.14,10,6,2,9,2,12,0.01,8,Snow,103
2012-12-28,15,8,0,10,3,-4,88,82,76,30.20,30.13,30.05,9,3,0,10,4,13,0.01,6,Fog-Snow,212
2012-12-29,9,3,-4,2,-3,-10,87,78,69,30.18,30.13,30.07,10,9,3,9,6,12,T,4,Snow,235
2012-12-30,21,14,6,15,7,1,84,76,67,30.17,30.05,29.91,10,8,2,24,10,29,T,6,Snow,205
2012-12-31,13,1,-11,5,-7,-14,90,78,65,30.37,30.30,30.13,10,9,2,20,5,23,T,2,Snow,345